Wetterdaten: Woche 05.04.04 - 11.04.04 (KW15)
Datum Zeit Temperatur Luftfeuchte Luftdruck Regenmenge Wind Richtung Taupunkt Windchill
05.04.2004 00:00 7.8 C 100 % 1021.1 hPa 0.3 l/m 2.7 km/h (1 Bft) SO 7.8 C 7.4 C
05.04.2004 01:00 8.0 C 100 % 1020.3 hPa 1.3 l/m 2.6 km/h (1 Bft) SO 8.0 C 7.6 C
05.04.2004 02:00 8.3 C 100 % 1020.7 hPa 0.3 l/m 21.0 km/h (4 Bft) NW 8.3 C 5.3 C
05.04.2004 03:00 8.0 C 100 % 1019.4 hPa 0.3 l/m 10.2 km/h (2 Bft) NW 8.0 C 6.4 C
05.04.2004 04:00 8.0 C 100 % 1019.0 hPa 0.0 l/m 6.9 km/h (2 Bft) W 8.0 C 6.9 C
05.04.2004 05:00 7.8 C 100 % 1019.0 hPa 0.0 l/m 9.3 km/h (2 Bft) W-NW 7.8 C 6.4 C
05.04.2004 06:00 8.9 C 90 % 1018.9 hPa 0.0 l/m 23.9 km/h (4 Bft) W-NW 7.4 C 5.6 C
05.04.2004 07:00 9.1 C 82 % 1018.8 hPa 0.0 l/m 27.1 km/h (4 Bft) NW 6.1 C 5.7 C
05.04.2004 08:00 8.4 C 84 % 1019.9 hPa 0.0 l/m 30.1 km/h (5 Bft) W-NW 5.8 C 4.5 C
05.04.2004 09:00 8.6 C 71 % 1020.2 hPa 0.0 l/m 33.2 km/h (5 Bft) W-NW 3.5 C 4.6 C
05.04.2004 10:00 10.0 C 54 % 1019.7 hPa 0.0 l/m 35.3 km/h (5 Bft) NW 1.1 C 7.7 C
05.04.2004 11:00 10.8 C 47 % 1019.6 hPa 0.0 l/m 35.5 km/h (5 Bft) NW 0.0 C 10.8 C
05.04.2004 12:00 10.3 C 51 % 1019.6 hPa 0.0 l/m 36.4 km/h (5 Bft) NW 0.6 C 9.5 C
05.04.2004 13:00 10.9 C 46 % 1018.7 hPa 0.0 l/m 41.5 km/h (6 Bft) NW -0.4 C 10.2 C
05.04.2004 14:00 12.1 C 38 % 1018.4 hPa 0.0 l/m 32.6 km/h (5 Bft) NW -2.0 C 12.1 C
05.04.2004 15:00 12.6 C 35 % 1017.8 hPa 0.0 l/m 35.6 km/h (5 Bft) NW -2.3 C 12.6 C
05.04.2004 16:00 12.1 C 36 % 1017.4 hPa 0.0 l/m 34.7 km/h (5 Bft) NW -2.6 C 12.1 C
05.04.2004 17:00 11.7 C 40 % 1017.3 hPa 0.0 l/m 28.1 km/h (4 Bft) NW -1.3 C 11.7 C
05.04.2004 18:00 11.1 C 43 % 1016.5 hPa 0.0 l/m 36.4 km/h (5 Bft) NW -0.9 C 11.1 C
05.04.2004 19:00 10.1 C 52 % 1016.8 hPa 0.0 l/m 35.1 km/h (5 Bft) NW 0.5 C 9.0 C
05.04.2004 20:00 8.5 C 70 % 1017.2 hPa 0.0 l/m 21.9 km/h (4 Bft) W-NW 3.3 C 5.3 C
05.04.2004 21:00 8.4 C 69 % 1016.8 hPa 0.0 l/m 6.0 km/h (2 Bft) W-NW 3.1 C 7.5 C
05.04.2004 22:00 8.2 C 72 % 1016.9 hPa 0.0 l/m 1.0 km/h (0 Bft) SW 3.3 C 8.1 C
05.04.2004 23:00 7.5 C 77 % 1016.2 hPa 0.7 l/m 18.1 km/h (3 Bft) W-NW 3.8 C 4.6 C
06.04.2004 00:00 6.5 C 93 % 1015.6 hPa 1.0 l/m 3.2 km/h (1 Bft) W-NW 5.3 C 6.0 C
06.04.2004 01:00 6.3 C 98 % 1014.3 hPa 0.7 l/m 1.6 km/h (1 Bft) NW 6.0 C 6.1 C
06.04.2004 02:00 6.3 C 98 % 1013.9 hPa 1.3 l/m 22.9 km/h (4 Bft) NW 6.0 C 2.5 C
06.04.2004 03:00 6.1 C 96 % 1012.9 hPa 0.3 l/m 18.6 km/h (3 Bft) W-NW 5.5 C 2.6 C
06.04.2004 04:00 6.0 C 96 % 1012.0 hPa 0.3 l/m 16.6 km/h (3 Bft) NW 5.4 C 2.9 C
06.04.2004 05:00 5.9 C 96 % 1011.7 hPa 0.3 l/m 16.7 km/h (3 Bft) W-NW 5.3 C 2.7 C
06.04.2004 06:00 5.7 C 97 % 1011.0 hPa 0.7 l/m 14.5 km/h (3 Bft) NW 5.3 C 2.9 C
06.04.2004 07:00 5.8 C 98 % 1010.1 hPa 0.3 l/m 12.2 km/h (2 Bft) W-NW 5.5 C 3.4 C
06.04.2004 08:00 6.1 C 99 % 1009.9 hPa 0.3 l/m 1.8 km/h (1 Bft) SO 6.0 C 5.9 C
06.04.2004 09:00 6.5 C 97 % 1009.4 hPa 0.3 l/m 4.6 km/h (1 Bft) W 6.1 C 5.7 C
06.04.2004 10:00 7.1 C 88 % 1008.7 hPa 1.0 l/m 15.1 km/h (3 Bft) NW 5.2 C 4.5 C
06.04.2004 11:00 7.3 C 80 % 1009.6 hPa 0.0 l/m 23.3 km/h (4 Bft) W-NW 4.1 C 3.6 C
06.04.2004 12:00 7.9 C 73 % 1008.7 hPa 0.0 l/m 23.4 km/h (4 Bft) W-NW 3.3 C 4.5 C
06.04.2004 13:00 5.7 C 84 % 1009.3 hPa 0.7 l/m 33.8 km/h (5 Bft) NW 3.1 C 0.8 C
06.04.2004 14:00 5.2 C 88 % 1009.8 hPa 0.0 l/m 17.7 km/h (3 Bft) NW 3.4 C 1.8 C
06.04.2004 15:00 5.9 C 78 % 1009.2 hPa 0.0 l/m 26.6 km/h (4 Bft) NW 2.4 C 1.6 C
06.04.2004 16:00 7.4 C 67 % 1008.7 hPa 0.0 l/m 22.7 km/h (4 Bft) NW 1.6 C 3.8 C
06.04.2004 17:00 7.6 C 62 % 1008.6 hPa 0.0 l/m 17.8 km/h (3 Bft) W-NW 0.7 C 4.6 C
06.04.2004 18:00 6.9 C 63 % 1007.9 hPa 0.0 l/m 17.1 km/h (3 Bft) W-NW 0.4 C 4.0 C
06.04.2004 19:00 5.8 C 69 % 1008.6 hPa 0.0 l/m 18.7 km/h (3 Bft) W-NW 0.5 C 2.3 C
06.04.2004 20:00 5.3 C 81 % 1008.7 hPa 0.3 l/m 9.0 km/h (2 Bft) W-NW 2.2 C 3.5 C
06.04.2004 21:00 4.2 C 93 % 1008.9 hPa 0.0 l/m 5.5 km/h (1 Bft) SO 3.1 C 3.1 C
06.04.2004 22:00 4.0 C 93 % 1008.1 hPa 2.3 l/m 5.2 km/h (1 Bft) NW 2.9 C 2.9 C
06.04.2004 23:00 2.0 C 98 % 1008.4 hPa 2.3 l/m 5.2 km/h (1 Bft) NW 1.8 C 0.8 C
07.04.2004 00:00 2.2 C 100 % 1007.8 hPa 0.3 l/m 0.7 km/h (0 Bft) SO 2.2 C 2.1 C
07.04.2004 01:00 2.0 C 100 % 1007.3 hPa 1.3 l/m 0.4 km/h (0 Bft) W 2.0 C 2.0 C
07.04.2004 02:00 2.0 C 100 % 1007.4 hPa 0.7 l/m 5.8 km/h (1 Bft) NW 2.0 C 0.7 C
07.04.2004 03:00 2.1 C 100 % 1007.3 hPa 0.0 l/m 7.9 km/h (2 Bft) NW 2.1 C 0.2 C
07.04.2004 04:00 2.4 C 100 % 1007.3 hPa 0.0 l/m 2.0 km/h (1 Bft) NW 2.4 C 2.1 C
07.04.2004 05:00 2.3 C 100 % 1008.2 hPa 0.3 l/m 3.3 km/h (1 Bft) NW 2.3 C 1.5 C
07.04.2004 06:00 2.1 C 100 % 1008.4 hPa 0.0 l/m 4.0 km/h (1 Bft) W-NW 2.1 C 1.2 C
07.04.2004 07:00 2.4 C 100 % 1009.1 hPa 0.0 l/m 9.0 km/h (2 Bft) W-NW 2.4 C 0.1 C
07.04.2004 08:00 2.8 C 94 % 1010.2 hPa 0.0 l/m 12.2 km/h (2 Bft) W-NW 2.0 C -0.1 C
07.04.2004 09:00 3.4 C 91 % 1010.7 hPa 0.0 l/m 13.3 km/h (3 Bft) NW 2.1 C 0.6 C
07.04.2004 10:00 3.8 C 87 % 1011.3 hPa 0.0 l/m 20.1 km/h (4 Bft) NW 1.8 C -0.4 C
07.04.2004 11:00 4.4 C 84 % 1012.2 hPa 0.0 l/m 20.9 km/h (4 Bft) NW 2.0 C 0.3 C
07.04.2004 12:00 5.6 C 75 % 1012.0 hPa 0.0 l/m 21.9 km/h (4 Bft) NW 1.5 C 1.7 C
07.04.2004 13:00 5.6 C 69 % 1012.0 hPa 0.0 l/m 30.2 km/h (5 Bft) NW 0.3 C 0.9 C
07.04.2004 14:00 7.5 C 57 % 1011.8 hPa 0.0 l/m 30.1 km/h (5 Bft) W-NW -0.4 C 3.3 C
07.04.2004 15:00 6.8 C 61 % 1011.9 hPa 0.0 l/m 26.6 km/h (4 Bft) NW -0.2 C 2.8 C
07.04.2004 16:00 8.3 C 54 % 1011.7 hPa 0.0 l/m 26.0 km/h (4 Bft) W-NW -0.6 C 4.6 C
07.04.2004 17:00 8.1 C 53 % 1011.7 hPa 0.0 l/m 31.6 km/h (5 Bft) NW -0.9 C 4.0 C
07.04.2004 18:00 7.4 C 58 % 1012.7 hPa 0.0 l/m 30.1 km/h (5 Bft) NW -0.4 C 3.2 C
07.04.2004 19:00 6.2 C 72 % 1013.0 hPa 0.0 l/m 17.6 km/h (3 Bft) W-NW 1.6 C 3.0 C
07.04.2004 20:00 5.2 C 73 % 1013.8 hPa 0.0 l/m 13.8 km/h (3 Bft) W-NW 0.8 C 2.4 C
07.04.2004 21:00 4.2 C 80 % 1014.4 hPa 0.0 l/m 1.5 km/h (1 Bft) NW 1.0 C 3.9 C
07.04.2004 22:00 3.1 C 85 % 1015.5 hPa 0.0 l/m 0.4 km/h (0 Bft) NO 0.8 C 3.1 C
07.04.2004 23:00 2.2 C 90 % 1015.6 hPa 0.0 l/m 0.6 km/h (0 Bft) SO 0.7 C 2.1 C
08.04.2004 00:00 3.5 C 84 % 1015.5 hPa 0.0 l/m 2.2 km/h (1 Bft) W-NW 1.0 C 3.0 C
08.04.2004 01:00 3.2 C 94 % 1016.0 hPa 0.3 l/m 8.0 km/h (2 Bft) W-NW 2.3 C 1.3 C
08.04.2004 02:00 2.9 C 99 % 1015.5 hPa 0.0 l/m 1.9 km/h (1 Bft) SO 2.7 C 2.5 C
08.04.2004 03:00 2.2 C 99 % 1015.6 hPa 0.0 l/m 0.0 km/h (0 Bft) N 2.1 C 2.2 C
08.04.2004 04:00 2.5 C 100 % 1015.6 hPa 0.0 l/m 0.0 km/h (0 Bft) N 2.5 C 2.5 C
08.04.2004 05:00 2.7 C 100 % 1015.6 hPa 0.0 l/m 1.7 km/h (1 Bft) SO 2.7 C 2.4 C
08.04.2004 06:00 3.0 C 100 % 1015.5 hPa 0.0 l/m 2.1 km/h (1 Bft) SO 3.0 C 2.6 C
08.04.2004 07:00 3.4 C 100 % 1015.5 hPa 0.0 l/m 0.7 km/h (0 Bft) S-SO 3.4 C 3.4 C
08.04.2004 08:00 4.2 C 90 % 1015.3 hPa 0.0 l/m 1.2 km/h (1 Bft) S-SO 2.8 C 4.1 C
08.04.2004 09:00 4.5 C 85 % 1015.5 hPa 0.3 l/m 4.0 km/h (1 Bft) W-NW 2.2 C 3.7 C
08.04.2004 10:00 5.1 C 86 % 1016.3 hPa 0.0 l/m 6.0 km/h (2 Bft) W-NW 3.0 C 4.2 C
08.04.2004 11:00 5.5 C 80 % 1016.2 hPa 0.0 l/m 12.1 km/h (2 Bft) W-NW 2.3 C 3.0 C
08.04.2004 12:00 8.0 C 60 % 1015.0 hPa 0.0 l/m 15.8 km/h (3 Bft) NW 0.7 C 5.4 C
08.04.2004 13:00 9.5 C 51 % 1014.6 hPa 0.0 l/m 15.5 km/h (3 Bft) NW -0.2 C 7.6 C
08.04.2004 14:00 10.5 C 43 % 1013.9 hPa 0.0 l/m 15.7 km/h (3 Bft) NW -1.7 C 9.7 C
08.04.2004 15:00 9.9 C 50 % 1013.5 hPa 0.0 l/m 9.7 km/h (2 Bft) SO -0.1 C 9.0 C
08.04.2004 16:00 8.9 C 54 % 1013.6 hPa 0.0 l/m 9.4 km/h (2 Bft) W 0.1 C 7.6 C
08.04.2004 17:00 10.3 C 51 % 1013.5 hPa 0.0 l/m 3.5 km/h (1 Bft) W-NW 0.6 C 10.3 C
08.04.2004 18:00 9.5 C 53 % 1013.6 hPa 0.0 l/m 3.0 km/h (1 Bft) W-NW 0.3 C 9.1 C
08.04.2004 19:00 7.4 C 63 % 1013.9 hPa 0.0 l/m 5.2 km/h (1 Bft) W-NW 0.7 C 6.5 C
08.04.2004 20:00 5.3 C 75 % 1014.2 hPa 0.0 l/m 0.6 km/h (0 Bft) NO 1.3 C 5.3 C
08.04.2004 21:00 4.0 C 82 % 1014.8 hPa 0.0 l/m 0.9 km/h (0 Bft) NO 1.2 C 4.0 C
08.04.2004 22:00 3.5 C 85 % 1015.3 hPa 0.0 l/m 2.2 km/h (1 Bft) NO 1.2 C 3.1 C
08.04.2004 23:00 2.9 C 90 % 1014.9 hPa 0.0 l/m 0.2 km/h (0 Bft) O 1.3 C 2.9 C
09.04.2004 00:00 2.1 C 94 % 1014.6 hPa 0.0 l/m 0.9 km/h (0 Bft) O 1.2 C 1.9 C
09.04.2004 01:00 1.2 C 97 % 1014.7 hPa 0.0 l/m 0.1 km/h (0 Bft) O 0.7 C 1.2 C
09.04.2004 02:00 1.3 C 99 % 1014.7 hPa 0.0 l/m 0.1 km/h (0 Bft) O 1.2 C 1.3 C
09.04.2004 03:00 1.7 C 99 % 1014.6 hPa 0.0 l/m 0.0 km/h (0 Bft) N 1.6 C 1.7 C
09.04.2004 04:00 2.1 C 97 % 1013.6 hPa 0.0 l/m 0.1 km/h (0 Bft) N 1.6 C 2.1 C
09.04.2004 05:00 2.1 C 94 % 1013.6 hPa 0.0 l/m 0.5 km/h (0 Bft) O 1.2 C 2.0 C
09.04.2004 06:00 2.1 C 94 % 1013.6 hPa 0.0 l/m 0.3 km/h (0 Bft) N 1.3 C 2.0 C
09.04.2004 07:00 2.4 C 94 % 1013.5 hPa 0.0 l/m 0.0 km/h (0 Bft) N 1.4 C 2.4 C
09.04.2004 08:00 3.3 C 87 % 1013.4 hPa 0.0 l/m 0.3 km/h (0 Bft) O 1.3 C 3.3 C
09.04.2004 09:00 5.4 C 70 % 1012.3 hPa 0.0 l/m 1.0 km/h (0 Bft) O-SO 0.3 C 5.3 C
09.04.2004 10:00 7.9 C 57 % 1011.7 hPa 0.0 l/m 6.3 km/h (2 Bft) N-NO -0.2 C 7.0 C
09.04.2004 11:00 9.4 C 50 % 1011.2 hPa 0.0 l/m 14.1 km/h (3 Bft) NO -0.6 C 7.7 C
09.04.2004 12:00 10.2 C 44 % 1010.3 hPa 0.0 l/m 13.8 km/h (3 Bft) NO -1.5 C 9.5 C
09.04.2004 13:00 11.2 C 42 % 1010.0 hPa 0.0 l/m 13.5 km/h (3 Bft) NO -1.3 C 11.2 C
09.04.2004 14:00 12.2 C 39 % 1009.0 hPa 0.0 l/m 16.6 km/h (3 Bft) O -1.2 C 12.2 C
09.04.2004 15:00 11.9 C 40 % 1009.1 hPa 0.0 l/m 11.2 km/h (2 Bft) NO -1.4 C 11.9 C
09.04.2004 16:00 11.4 C 41 % 1009.1 hPa 0.0 l/m 18.6 km/h (3 Bft) O-SO -1.4 C 11.4 C
09.04.2004 17:00 10.7 C 40 % 1008.2 hPa 0.0 l/m 17.8 km/h (3 Bft) O -2.2 C 10.7 C
09.04.2004 18:00 10.1 C 41 % 1008.3 hPa 0.0 l/m 16.1 km/h (3 Bft) O -2.7 C 9.4 C
09.04.2004 19:00 9.6 C 42 % 1008.4 hPa 0.0 l/m 9.4 km/h (2 Bft) O-NO -2.8 C 8.3 C
09.04.2004 20:00 8.9 C 43 % 1008.4 hPa 0.0 l/m 2.9 km/h (1 Bft) N-NO -3.0 C 8.6 C
09.04.2004 21:00 8.4 C 52 % 1009.5 hPa 0.0 l/m 7.2 km/h (2 Bft) N-NO -1.0 C 7.3 C
09.04.2004 22:00 7.3 C 57 % 1009.7 hPa 0.0 l/m 5.5 km/h (1 Bft) N-NO -0.7 C 6.5 C
09.04.2004 23:00 6.9 C 57 % 1009.8 hPa 0.0 l/m 4.2 km/h (1 Bft) N-NO -1.1 C 6.4 C
10.04.2004 00:00 6.6 C 58 % 1009.8 hPa 0.0 l/m 3.3 km/h (1 Bft) N-NO -1.0 C 6.2 C
10.04.2004 01:00 5.9 C 66 % 1010.2 hPa 0.0 l/m 3.9 km/h (1 Bft) NO -0.0 C 5.3 C
10.04.2004 02:00 4.2 C 84 % 1011.0 hPa 0.7 l/m 2.9 km/h (1 Bft) N-NO 1.7 C 3.7 C
10.04.2004 03:00 3.9 C 87 % 1010.2 hPa 0.0 l/m 1.6 km/h (1 Bft) NO 1.9 C 3.6 C
10.04.2004 04:00 4.2 C 82 % 1010.2 hPa 0.0 l/m 0.3 km/h (0 Bft) N-NO 1.3 C 4.2 C
10.04.2004 05:00 4.1 C 80 % 1010.2 hPa 0.0 l/m 0.1 km/h (0 Bft) N 0.9 C 4.1 C
10.04.2004 06:00 4.1 C 75 % 1010.2 hPa 0.0 l/m 0.2 km/h (0 Bft) N 0.1 C 4.1 C
10.04.2004 07:00 4.1 C 78 % 1011.0 hPa 0.0 l/m 0.4 km/h (0 Bft) N-NO 0.6 C 4.1 C
10.04.2004 08:00 4.7 C 75 % 1011.1 hPa 0.0 l/m 1.2 km/h (1 Bft) NO 0.7 C 4.5 C
10.04.2004 09:00 5.7 C 69 % 1011.0 hPa 0.0 l/m 2.2 km/h (1 Bft) N 0.5 C 5.3 C
10.04.2004 10:00 6.4 C 66 % 1010.9 hPa 0.0 l/m 1.8 km/h (1 Bft) N-NO 0.6 C 6.1 C
10.04.2004 11:00 8.0 C 59 % 1010.7 hPa 0.0 l/m 4.5 km/h (1 Bft) N-NO 0.5 C 7.3 C
10.04.2004 12:00 8.7 C 58 % 1010.6 hPa 0.0 l/m 9.3 km/h (2 Bft) O-NO 0.9 C 7.2 C
10.04.2004 13:00 9.3 C 57 % 1010.5 hPa 0.0 l/m 6.5 km/h (2 Bft) O-NO 1.2 C 8.4 C
10.04.2004 14:00 8.7 C 61 % 1011.3 hPa 0.0 l/m 9.6 km/h (2 Bft) O-SO 1.7 C 7.3 C
10.04.2004 15:00 7.8 C 76 % 1011.7 hPa 0.0 l/m 12.9 km/h (3 Bft) O-SO 3.7 C 5.5 C
10.04.2004 16:00 8.5 C 74 % 1011.6 hPa 0.3 l/m 14.6 km/h (3 Bft) O-SO 4.0 C 6.1 C
10.04.2004 17:00 9.1 C 65 % 1011.5 hPa 0.0 l/m 5.5 km/h (1 Bft) O-SO 2.8 C 8.3 C
10.04.2004 18:00 9.1 C 59 % 1011.5 hPa 0.0 l/m 0.5 km/h (0 Bft) W-NW 1.6 C 9.1 C
10.04.2004 19:00 8.6 C 63 % 1011.9 hPa 0.0 l/m 2.6 km/h (1 Bft) O-SO 2.0 C 8.2 C
10.04.2004 20:00 6.7 C 76 % 1013.2 hPa 0.0 l/m 4.1 km/h (1 Bft) O-SO 2.8 C 6.1 C
10.04.2004 21:00 5.7 C 90 % 1014.1 hPa 0.0 l/m 1.4 km/h (1 Bft) SO 4.2 C 5.5 C
10.04.2004 22:00 4.7 C 97 % 1014.3 hPa 0.0 l/m 6.5 km/h (2 Bft) O-SO 4.2 C 3.2 C
10.04.2004 23:00 4.3 C 98 % 1015.2 hPa 0.0 l/m 5.9 km/h (2 Bft) SO 4.0 C 3.1 C
11.04.2004 00:00 4.1 C 100 % 1015.4 hPa 0.0 l/m 3.0 km/h (1 Bft) O-SO 4.1 C 3.5 C
11.04.2004 01:00 4.4 C 99 % 1015.3 hPa 0.0 l/m 2.4 km/h (1 Bft) SO 4.3 C 4.2 C
11.04.2004 02:00 4.3 C 98 % 1015.3 hPa 0.0 l/m 0.9 km/h (0 Bft) SO 4.1 C 4.3 C
11.04.2004 03:00 4.2 C 98 % 1015.5 hPa 0.0 l/m 1.0 km/h (0 Bft) O-SO 4.0 C 4.1 C
11.04.2004 04:00 4.1 C 99 % 1016.4 hPa 0.0 l/m 1.6 km/h (1 Bft) SO 3.9 C 4.0 C
11.04.2004 05:00 3.9 C 100 % 1016.4 hPa 0.0 l/m 1.0 km/h (0 Bft) SO 3.9 C 3.8 C
11.04.2004 06:00 4.0 C 100 % 1016.4 hPa 0.3 l/m 2.4 km/h (1 Bft) O-SO 4.0 C 3.9 C
11.04.2004 07:00 4.4 C 100 % 1017.1 hPa 0.0 l/m 0.0 km/h (0 Bft) N 4.4 C 4.4 C
11.04.2004 08:00 5.3 C 99 % 1017.3 hPa 0.0 l/m 0.1 km/h (0 Bft) N 5.2 C 5.3 C
11.04.2004 09:00 6.5 C 88 % 1017.1 hPa 0.0 l/m 1.8 km/h (1 Bft) O-SO 4.7 C 6.2 C
11.04.2004 10:00 7.1 C 80 % 1018.0 hPa 0.0 l/m 0.4 km/h (0 Bft) W 3.8 C 7.0 C
11.04.2004 11:00 7.1 C 85 % 1018.1 hPa 0.0 l/m 0.1 km/h (0 Bft) N 4.7 C 7.1 C
11.04.2004 12:00 8.4 C 75 % 1018.0 hPa 0.0 l/m 1.1 km/h (0 Bft) NW 4.2 C 8.3 C
11.04.2004 13:00 9.6 C 66 % 1017.7 hPa 0.0 l/m 2.8 km/h (1 Bft) N-NO 3.6 C 9.4 C
11.04.2004 14:00 10.0 C 63 % 1018.0 hPa 0.0 l/m 4.6 km/h (1 Bft) N-NO 3.3 C 9.8 C
11.04.2004 15:00 11.1 C 58 % 1017.6 hPa 0.0 l/m 6.7 km/h (2 Bft) N-NO 3.0 C 11.1 C
11.04.2004 16:00 11.3 C 56 % 1017.5 hPa 0.0 l/m 5.5 km/h (1 Bft) N-NO 2.8 C 11.3 C
11.04.2004 17:00 11.7 C 53 % 1017.4 hPa 0.0 l/m 3.9 km/h (1 Bft) N 2.4 C 11.7 C
11.04.2004 18:00 10.7 C 54 % 1017.6 hPa 0.0 l/m 3.8 km/h (1 Bft) O-SO 1.7 C 10.4 C
11.04.2004 19:00 8.9 C 63 % 1018.3 hPa 0.0 l/m 1.5 km/h (1 Bft) NO 2.2 C 8.7 C
11.04.2004 20:00 6.9 C 73 % 1019.1 hPa 0.0 l/m 0.5 km/h (0 Bft) O-NO 2.4 C 6.8 C
11.04.2004 21:00 7.5 C 69 % 1020.1 hPa 0.0 l/m 0.2 km/h (0 Bft) NO 2.1 C 7.5 C
11.04.2004 22:00 7.1 C 72 % 1020.1 hPa 0.0 l/m 0.6 km/h (0 Bft) N-NO 2.3 C 7.1 C
11.04.2004 23:00 5.6 C 78 % 1020.4 hPa 0.0 l/m 0.0 km/h (0 Bft) N 2.1 C 5.6 C
Min-Datum _ 09.04.04 05.04.04 07.04.04 - 05.04.04 - 05.04.04 07.04.04
_ Min-Zeit 01:45 15:54 04:30 - 00:03 - 15:54 02:48
Minimum _ 1.0 C 32 % 1007.3 hPa - 0.0 km/h (0 Bft) - -3.4 C -4.0 C
Max-Datum _ 05.04.04 05.04.04 05.04.04 06.04.04 05.04.04 - 05.04.04 05.04.04
_ Max-Zeit 15:51 00:00 00:00 22:27 18:48 - 02:09 15:51
Maximum _ 13.1 C 100 % 1021.2 hPa 2.3 l/m 59.8 km/h
NW (7 Bft)
- 8.3 C 13.1 C
Durchschnitt _ 6.5 C 76 % 1013.6 hPa #20.1 l/m 10.0 km/h (2 Bft) NW 2.1 C 5.3 C

Durchschnitt Minimum Temp.5.8 C
Durchschnitt Maximum Temp.7.1 C
© Kaiko 2004